Time;durP1;ratioP1;P1;durP2;ratioP2;P2;SDS_P1;SDS_P2;PMS_P1;PMS_P2;Temp;Humidity;BMP_temperature;BMP_pressure;BME280_temperature;BME280_humidity;BME280_pressure;Samples;Min_cycle;Max_cycle;Signal;HPM_P1;HPM_P2
2022/03/04 00:02:00;;;;;;;26.25;12.15;;;0.30;62.40;;;;;;5044022;28;20025;-81
2022/03/04 00:04:26;;;;;;;23.83;12.48;;;0.30;62.70;;;;;;5039463;28;20089;-82
2022/03/04 00:06:55;;;;;;;29.98;14.48;;;0.30;62.90;;;;;;5052536;28;20053;-79
2022/03/04 00:09:21;;;;;;;27.65;13.45;;;0.20;63.10;;;;;;5065521;28;20026;-81
2022/03/04 00:11:50;;;;;;;24.17;12.35;;;0.20;63.20;;;;;;5036010;28;20156;-81
2022/03/04 00:14:17;;;;;;;23.20;11.50;;;0.10;63.30;;;;;;5051335;28;20097;-82
2022/03/04 00:16:43;;;;;;;24.13;11.75;;;0.10;63.50;;;;;;5036464;28;20053;-82
2022/03/04 00:19:10;;;;;;;23.95;12.15;;;0.10;63.60;;;;;;5048811;28;20063;-82
2022/03/04 00:21:50;;;;;;;29.10;13.68;;;0.10;63.70;;;;;;5036458;28;20025;-81
2022/03/04 00:24:17;;;;;;;25.85;13.07;;;0.00;63.60;;;;;;5036427;28;20132;-83
2022/03/04 00:26:43;;;;;;;26.27;11.90;;;0.00;63.70;;;;;;5037219;28;20032;-82
2022/03/04 00:29:10;;;;;;;22.98;12.23;;;0.00;63.70;;;;;;5036858;28;20021;-82
2022/03/04 00:31:36;;;;;;;27.23;12.95;;;-0.10;63.80;;;;;;5036943;28;20446;-81
2022/03/04 00:34:06;;;;;;;27.42;13.60;;;-0.10;63.80;;;;;;5037712;28;20025;-82
2022/03/04 00:36:32;;;;;;;27.73;12.65;;;-0.10;63.90;;;;;;5037779;28;20128;-80
2022/03/04 00:38:58;;;;;;;27.27;13.52;;;-0.10;64.00;;;;;;5037599;28;20037;-82
2022/03/04 00:41:24;;;;;;;30.42;12.90;;;-0.20;64.20;;;;;;5037404;28;20104;-82
2022/03/04 00:43:51;;;;;;;26.23;12.32;;;-0.20;64.20;;;;;;5039805;28;20049;-82
2022/03/04 00:46:20;;;;;;;26.75;12.32;;;-0.20;64.30;;;;;;5038334;28;20048;-82
2022/03/04 00:48:46;;;;;;;24.77;12.32;;;-0.20;64.40;;;;;;5033507;28;20014;-81
2022/03/04 00:51:13;;;;;;;23.65;12.60;;;-0.20;64.50;;;;;;5036963;28;20021;-81
2022/03/04 00:53:40;;;;;;;26.30;12.02;;;-0.30;64.80;;;;;;5036855;28;20505;-81
2022/03/04 00:56:08;;;;;;;27.02;13.45;;;-0.30;65.10;;;;;;5066391;28;20079;-79
2022/03/04 00:58:35;;;;;;;27.15;12.98;;;-0.30;65.20;;;;;;5064446;28;20084;-82
2022/03/04 01:01:02;;;;;;;26.52;12.35;;;-0.30;67.30;;;;;;5045469;28;20052;-83
2022/03/04 01:03:28;;;;;;;27.55;13.20;;;-0.30;65.20;;;;;;5053481;28;20025;-80
2022/03/04 01:05:53;;;;;;;26.55;12.50;;;-0.30;65.20;;;;;;5052296;28;20082;-81
2022/03/04 01:08:20;;;;;;;29.92;12.63;;;-0.10;68.40;;;;;;5036679;28;20029;-82
2022/03/04 01:10:45;;;;;;;30.42;13.05;;;-0.40;65.10;;;;;;5037128;28;20025;-81
2022/03/04 01:13:11;;;;;;;24.77;12.60;;;-0.40;65.20;;;;;;5037312;28;20022;-83
2022/03/04 01:15:37;;;;;;;25.50;12.15;;;-0.40;65.20;;;;;;5039906;28;20029;-83
2022/03/04 01:18:03;;;;;;;26.08;12.10;;;-0.50;65.40;;;;;;5035646;28;20047;-82
2022/03/04 01:20:31;;;;;;;27.17;11.80;;;-0.40;65.50;;;;;;5038960;28;20026;-82
2022/03/04 01:22:57;;;;;;;25.75;12.82;;;-0.50;65.50;;;;;;5054633;28;20025;-82
2022/03/04 01:25:23;;;;;;;27.00;13.25;;;-0.50;65.70;;;;;;5039702;28;20356;-83
2022/03/04 01:27:49;;;;;;;24.35;12.38;;;-0.50;65.80;;;;;;5038522;28;20022;-83
2022/03/04 01:30:15;;;;;;;25.33;12.38;;;-0.60;65.90;;;;;;5038923;28;20060;-82
2022/03/04 01:32:41;;;;;;;26.05;12.85;;;-0.60;66.00;;;;;;5054402;28;20040;-83
2022/03/04 01:35:08;;;;;;;27.63;13.18;;;-0.60;66.20;;;;;;5038223;28;20048;-80
2022/03/04 01:37:34;;;;;;;27.20;13.25;;;-0.60;66.40;;;;;;5039369;28;20032;-83
2022/03/04 01:40:00;;;;;;;24.40;12.18;;;-0.60;66.60;;;;;;5038589;28;20025;-83
2022/03/04 01:42:27;;;;;;;24.17;11.70;;;-0.60;66.90;;;;;;5039979;28;20037;-81
2022/03/04 01:44:52;;;;;;;29.17;12.68;;;-0.70;67.10;;;;;;5027194;28;20140;-81
2022/03/04 01:47:18;;;;;;;27.17;12.90;;;-0.70;67.30;;;;;;5055030;28;20025;-78
2022/03/04 01:49:44;;;;;;;21.92;12.13;;;-0.70;67.40;;;;;;5054167;28;20096;-80
2022/03/04 01:52:10;;;;;;;31.35;13.15;;;-0.70;67.60;;;;;;5069419;28;20030;-80
2022/03/04 01:54:36;;;;;;;23.95;12.80;;;-0.70;67.80;;;;;;5051148;28;20073;-79
2022/03/04 01:57:02;;;;;;;31.35;13.98;;;-0.70;68.00;;;;;;5050621;28;20033;-81
2022/03/04 01:59:28;;;;;;;27.20;13.73;;;-0.70;68.20;;;;;;5050780;28;20032;-79
2022/03/04 02:01:54;;;;;;;26.63;13.23;;;-0.80;68.30;;;;;;5056420;28;20021;-79
2022/03/04 02:04:21;;;;;;;25.30;11.57;;;-0.80;68.40;;;;;;5059056;28;20013;-78
2022/03/04 02:06:47;;;;;;;29.10;14.20;;;-0.80;68.50;;;;;;5058938;28;20025;-78
2022/03/04 02:09:12;;;;;;;31.95;13.80;;;-0.80;68.60;;;;;;5061311;28;20136;-82
2022/03/04 02:11:43;;;;;;;28.65;13.13;;;-0.80;68.80;;;;;;5057855;28;20052;-82
2022/03/04 02:14:13;;;;;;;25.70;12.80;;;-0.80;69.00;;;;;;5037778;28;20104;-82
2022/03/04 02:16:45;;;;;;;28.52;12.77;;;-0.80;69.00;;;;;;5043401;28;20525;-82
2022/03/04 02:19:11;;;;;;;25.58;12.82;;;-0.80;69.20;;;;;;5042340;28;20067;-82
2022/03/04 02:21:41;;;;;;;20.90;11.45;;;-0.80;69.30;;;;;;5057656;28;20029;-82
2022/03/04 02:24:06;;;;;;;20.77;11.32;;;-0.80;69.30;;;;;;5041525;28;20108;-82
2022/03/04 02:26:32;;;;;;;25.70;11.85;;;-0.80;69.70;;;;;;5056042;28;20049;-82
2022/03/04 02:28:58;;;;;;;25.10;12.35;;;-0.80;69.60;;;;;;5062657;28;20089;-81
2022/03/04 02:31:24;;;;;;;23.58;11.95;;;-0.70;71.90;;;;;;5068988;28;20021;-80
2022/03/04 02:33:50;;;;;;;21.00;10.25;;;-0.60;73.30;;;;;;5068618;28;20021;-81
2022/03/04 02:36:16;;;;;;;26.52;11.55;;;-0.70;72.90;;;;;;5051533;28;20105;-79
2022/03/04 02:38:42;;;;;;;23.65;11.68;;;-0.70;72.30;;;;;;5051924;28;20022;-82
2022/03/04 02:41:08;;;;;;;22.33;10.45;;;-0.70;83.50;;;;;;5050054;28;20040;-80
2022/03/04 02:43:34;;;;;;;24.65;11.90;;;-0.80;69.60;;;;;;5046863;28;20025;-83
2022/03/04 02:46:00;;;;;;;19.40;10.18;;;-0.90;69.50;;;;;;5050990;28;20028;-81
2022/03/04 02:48:26;;;;;;;21.77;10.68;;;-0.80;69.60;;;;;;5052427;28;20381;-80
2022/03/04 02:50:51;;;;;;;18.83;9.65;;;-0.80;69.60;;;;;;5051613;28;20036;-80
2022/03/04 02:53:17;;;;;;;21.17;9.88;;;-0.80;69.60;;;;;;5047186;28;20057;-81
2022/03/04 02:55:43;;;;;;;20.65;10.82;;;-0.80;69.20;;;;;;5044476;28;20025;-81
2022/03/04 02:58:09;;;;;;;22.58;10.65;;;-0.80;68.90;;;;;;5058694;28;20040;-81
2022/03/04 03:00:35;;;;;;;21.60;11.25;;;-0.80;68.70;;;;;;5045019;28;20104;-81
2022/03/04 03:03:01;;;;;;;24.48;11.63;;;-0.70;68.90;;;;;;5059607;28;20097;-80
2022/03/04 03:05:26;;;;;;;25.58;12.27;;;-0.70;68.80;;;;;;5059855;28;20038;-80
2022/03/04 03:07:52;;;;;;;23.30;12.27;;;-0.70;68.90;;;;;;5044580;28;20052;-82
2022/03/04 03:10:18;;;;;;;21.23;10.30;;;-0.70;70.50;;;;;;5043485;28;20285;-82
2022/03/04 03:12:44;;;;;;;20.50;10.80;;;-0.60;73.70;;;;;;5041389;28;20025;-82
2022/03/04 03:15:11;;;;;;;26.05;12.95;;;-0.60;74.00;;;;;;5036928;28;20017;-81
2022/03/04 03:17:37;;;;;;;25.33;11.57;;;-0.70;74.80;;;;;;5048262;28;20076;-80
2022/03/04 03:20:05;;;;;;;24.15;11.88;;;-0.70;80.60;;;;;;5071210;28;20093;-79
2022/03/04 03:22:31;;;;;;;29.88;13.75;;;-0.80;80.10;;;;;;5047344;28;20024;-80
2022/03/04 03:24:57;;;;;;;30.00;12.93;;;-0.90;70.10;;;;;;5071450;28;20017;-79
2022/03/04 03:27:23;;;;;;;27.80;13.40;;;-0.90;70.50;;;;;;5046409;28;20040;-80
2022/03/04 03:29:49;;;;;;;24.50;12.82;;;-1.00;70.70;;;;;;5039440;28;20014;-81
2022/03/04 03:32:16;;;;;;;25.73;12.82;;;-1.10;70.80;;;;;;5067684;28;20044;-81
2022/03/04 03:34:42;;;;;;;28.08;13.93;;;-1.10;71.10;;;;;;5056232;28;20018;-83
2022/03/04 03:37:09;;;;;;;24.02;12.55;;;-1.10;72.10;;;;;;5040475;28;20022;-83
2022/03/04 03:39:36;;;;;;;27.67;12.77;;;-1.10;71.60;;;;;;5042139;28;20053;-82
2022/03/04 03:42:02;;;;;;;28.67;13.73;;;-1.10;71.70;;;;;;5055335;28;20021;-81
2022/03/04 03:44:28;;;;;;;25.27;12.77;;;-1.20;71.80;;;;;;5048650;28;20416;-82
2022/03/04 03:46:53;;;;;;;29.80;13.57;;;-1.20;71.90;;;;;;5037016;28;20126;-81
2022/03/04 03:49:19;;;;;;;25.80;12.63;;;-1.20;71.90;;;;;;5053145;28;20028;-83
2022/03/04 03:51:45;;;;;;;23.80;12.02;;;-1.20;71.90;;;;;;5037534;28;20466;-82
2022/03/04 03:54:11;;;;;;;24.20;12.15;;;-1.20;71.90;;;;;;5052156;28;20025;-83
2022/03/04 03:56:36;;;;;;;20.15;10.43;;;-1.20;72.70;;;;;;5036539;28;20077;-83
2022/03/04 03:59:02;;;;;;;23.63;11.10;;;-1.20;72.10;;;;;;5035383;28;20064;-81
2022/03/04 04:01:28;;;;;;;24.05;12.15;;;-1.20;72.10;;;;;;5048869;28;20021;-78
2022/03/04 04:03:54;;;;;;;23.92;11.45;;;-1.20;72.10;;;;;;5068280;28;20454;-82
2022/03/04 04:06:20;;;;;;;26.63;10.85;;;-1.30;72.20;;;;;;5038362;28;20079;-81
2022/03/04 04:08:46;;;;;;;26.63;12.75;;;-1.30;72.50;;;;;;5040492;28;20078;-83
2022/03/04 04:11:12;;;;;;;23.70;11.63;;;-1.30;72.80;;;;;;5040739;28;20069;-82
2022/03/04 04:13:38;;;;;;;21.88;11.20;;;-1.30;73.10;;;;;;5049509;28;20057;-79
2022/03/04 04:16:04;;;;;;;25.00;12.15;;;-1.30;73.40;;;;;;5067362;28;20022;-79
2022/03/04 04:18:30;;;;;;;26.02;12.55;;;-1.30;73.70;;;;;;5051768;28;20040;-82
2022/03/04 04:20:56;;;;;;;25.92;12.30;;;-1.40;74.00;;;;;;5051824;28;20026;-81
2022/03/04 04:23:21;;;;;;;25.48;12.50;;;-1.40;74.40;;;;;;5036514;28;20087;-82
2022/03/04 04:25:47;;;;;;;24.58;12.18;;;-1.50;74.60;;;;;;5052189;28;20156;-82
2022/03/04 04:28:13;;;;;;;22.98;12.20;;;-1.50;75.00;;;;;;5053098;28;20088;-83
2022/03/04 04:30:39;;;;;;;23.27;11.70;;;-1.50;75.30;;;;;;5037390;28;20525;-82
2022/03/04 04:33:04;;;;;;;27.73;12.38;;;-1.50;75.50;;;;;;5051490;28;20029;-80
2022/03/04 04:35:30;;;;;;;26.33;13.27;;;-1.50;75.70;;;;;;5033355;28;20084;-84
2022/03/04 04:37:56;;;;;;;32.90;14.63;;;-1.50;75.90;;;;;;5018600;28;20076;-84
2022/03/04 04:40:22;;;;;;;27.90;13.43;;;-1.50;75.70;;;;;;5033075;28;20083;-83
2022/03/04 04:42:47;;;;;;;33.08;14.43;;;-1.60;75.40;;;;;;5033406;28;20041;-83
2022/03/04 04:45:13;;;;;;;33.90;13.52;;;-1.60;75.00;;;;;;5024903;28;20029;-81
2022/03/04 04:47:39;;;;;;;26.02;12.73;;;-1.70;74.70;;;;;;5036613;28;20320;-81
2022/03/04 04:50:06;;;;;;;31.60;14.05;;;-1.70;74.60;;;;;;5038041;28;20444;-81
2022/03/04 04:52:32;;;;;;;28.42;12.63;;;-1.80;74.50;;;;;;5037080;28;20033;-84
2022/03/04 04:54:57;;;;;;;32.30;14.20;;;-1.80;74.50;;;;;;5052670;28;20369;-83
2022/03/04 04:57:23;;;;;;;29.75;13.57;;;-1.80;74.50;;;;;;5037165;28;20576;-82
2022/03/04 04:59:49;;;;;;;28.17;13.85;;;-1.80;74.50;;;;;;5037154;28;20029;-84
2022/03/04 05:02:14;;;;;;;29.20;12.75;;;-1.90;74.40;;;;;;5023011;28;20131;-83
2022/03/04 05:04:40;;;;;;;33.90;15.40;;;-1.90;74.80;;;;;;5017866;28;20052;-84
2022/03/04 05:07:06;;;;;;;33.03;13.48;;;-1.90;74.60;;;;;;5032130;28;20076;-82
2022/03/04 05:09:32;;;;;;;31.30;14.02;;;-1.90;74.50;;;;;;5033223;28;20022;-82
2022/03/04 05:11:58;;;;;;;27.50;14.68;;;-1.90;74.60;;;;;;5028847;28;20049;-82
2022/03/04 05:14:23;;;;;;;28.48;13.15;;;-1.90;74.60;;;;;;5013711;28;20049;-82
2022/03/04 05:16:50;;;;;;;29.88;13.88;;;-1.90;74.80;;;;;;5025104;28;20053;-82
2022/03/04 05:19:16;;;;;;;27.67;11.57;;;-2.00;74.80;;;;;;5018664;28;20103;-80
2022/03/04 05:21:41;;;;;;;28.80;13.77;;;-2.00;75.00;;;;;;5019055;28;20534;-79
2022/03/04 05:24:08;;;;;;;24.42;12.02;;;-2.00;75.10;;;;;;5021014;28;20064;-80
2022/03/04 05:26:40;;;;;;;28.70;14.20;;;-2.00;75.20;;;;;;5021760;28;20406;-79
2022/03/04 05:29:10;;;;;;;34.30;14.00;;;-2.00;75.30;;;;;;5019936;28;20026;-79
2022/03/04 05:31:37;;;;;;;28.88;13.60;;;-2.10;75.30;;;;;;5021498;28;20033;-80
2022/03/04 05:34:03;;;;;;;26.42;14.48;;;-2.10;75.20;;;;;;5025713;28;20529;-79
2022/03/04 05:36:29;;;;;;;31.90;14.60;;;-2.10;75.20;;;;;;5026305;28;20026;-79
2022/03/04 05:38:55;;;;;;;32.22;14.38;;;-2.10;76.80;;;;;;5028516;28;20034;-79
2022/03/04 05:41:21;;;;;;;33.50;14.23;;;-2.20;75.20;;;;;;5028973;28;20060;-80
2022/03/04 05:43:48;;;;;;;31.13;14.23;;;-2.10;75.20;;;;;;5034037;28;20025;-80
2022/03/04 05:46:14;;;;;;;27.20;13.30;;;-2.20;75.10;;;;;;5047162;28;20140;-80
2022/03/04 05:48:40;;;;;;;24.33;12.90;;;-2.20;75.10;;;;;;5046891;28;20030;-80
2022/03/04 05:51:06;;;;;;;28.50;14.15;;;-2.20;75.10;;;;;;5047273;28;20026;-80
2022/03/04 05:53:33;;;;;;;28.27;13.85;;;-2.20;75.20;;;;;;5074611;28;20022;-80
2022/03/04 05:56:04;;;;;;;29.67;14.13;;;-2.20;75.20;;;;;;5065919;28;20405;-81
2022/03/04 05:58:30;;;;;;;33.78;14.13;;;-2.20;75.20;;;;;;5047205;28;20022;-81
2022/03/04 06:00:55;;;;;;;31.00;13.77;;;-2.20;75.30;;;;;;5041855;28;20080;-80
2022/03/04 06:03:21;;;;;;;30.30;15.05;;;-2.20;75.20;;;;;;5052515;28;20088;-79
2022/03/04 06:05:47;;;;;;;27.17;13.23;;;-2.20;75.30;;;;;;5053378;28;20042;-79
2022/03/04 06:08:14;;;;;;;30.02;13.98;;;-2.10;75.40;;;;;;5040473;28;20047;-79
2022/03/04 06:10:40;;;;;;;30.60;14.10;;;-2.10;75.50;;;;;;5040521;28;20025;-79
2022/03/04 06:13:06;;;;;;;28.08;13.57;;;-2.10;75.50;;;;;;5056099;28;20026;-79
2022/03/04 06:15:33;;;;;;;27.50;13.98;;;-2.10;75.50;;;;;;5037276;28;21510;-79
2022/03/04 06:17:59;;;;;;;29.73;13.23;;;-2.10;75.60;;;;;;5040700;28;20257;-79
2022/03/04 06:20:25;;;;;;;27.25;13.05;;;-2.00;75.70;;;;;;5018768;28;20121;-79
2022/03/04 06:22:50;;;;;;;28.33;13.32;;;-2.00;75.80;;;;;;5020017;28;20072;-79
2022/03/04 06:25:16;;;;;;;28.67;13.60;;;-2.00;75.80;;;;;;5020152;28;20030;-80
2022/03/04 06:27:57;;;;;;;28.42;13.45;;;-1.90;76.00;;;;;;5019211;28;20529;-79
2022/03/04 06:30:23;;;;;;;30.27;14.25;;;-1.80;76.50;;;;;;5019900;28;20022;-80
2022/03/04 06:32:50;;;;;;;32.30;13.85;;;-1.80;75.80;;;;;;5053997;28;20432;-81
2022/03/04 06:35:16;;;;;;;29.77;15.10;;;-1.70;76.00;;;;;;5038285;28;20034;-81
2022/03/04 06:37:43;;;;;;;32.47;13.98;;;-1.70;75.80;;;;;;5052717;28;20029;-79
2022/03/04 06:40:10;;;;;;;29.20;13.48;;;-1.60;75.60;;;;;;5038391;28;20022;-80
2022/03/04 06:42:35;;;;;;;33.00;15.05;;;-1.60;75.30;;;;;;5063657;28;20037;-80
2022/03/04 06:45:01;;;;;;;29.75;13.70;;;-1.50;74.80;;;;;;5045082;28;20052;-79
2022/03/04 06:47:27;;;;;;;27.92;13.05;;;-1.50;74.30;;;;;;5033042;28;20033;-81
2022/03/04 06:49:53;;;;;;;32.50;13.73;;;-1.40;74.10;;;;;;5023342;28;20026;-80
2022/03/04 06:52:21;;;;;;;30.23;14.25;;;-1.40;73.80;;;;;;5031412;28;20026;-81
2022/03/04 06:54:47;;;;;;;28.67;13.38;;;-1.30;73.50;;;;;;5033742;28;20017;-81
2022/03/04 06:57:13;;;;;;;27.88;12.10;;;-1.30;73.30;;;;;;5032681;28;20050;-82
2022/03/04 06:59:39;;;;;;;28.50;13.40;;;-1.20;73.20;;;;;;5045630;28;20021;-78
2022/03/04 07:02:06;;;;;;;25.40;13.85;;;-1.10;73.80;;;;;;5028114;28;20021;-80
2022/03/04 07:04:32;;;;;;;26.77;13.48;;;-1.10;72.90;;;;;;5031369;28;20283;-79
2022/03/04 07:06:58;;;;;;;32.00;13.27;;;-1.00;72.80;;;;;;5031830;28;20030;-79
2022/03/04 07:09:24;;;;;;;32.38;14.75;;;-0.90;72.50;;;;;;5037086;28;20089;-80
2022/03/04 07:11:49;;;;;;;29.95;14.82;;;-0.80;72.20;;;;;;5036220;28;20026;-80
2022/03/04 07:14:15;;;;;;;39.75;14.10;;;-0.70;71.80;;;;;;5045527;28;20016;-81
2022/03/04 07:16:41;;;;;;;26.70;12.95;;;-0.60;71.00;;;;;;5071690;28;20018;-82
2022/03/04 07:19:07;;;;;;;34.08;13.52;;;-0.50;70.40;;;;;;5055128;28;20032;-80
2022/03/04 07:21:33;;;;;;;33.95;13.70;;;-0.30;69.30;;;;;;5048531;28;20065;-79
2022/03/04 07:23:59;;;;;;;31.88;13.27;;;-0.20;68.40;;;;;;5040624;28;20025;-81
2022/03/04 07:26:24;;;;;;;33.65;13.85;;;-0.10;67.60;;;;;;5041270;28;20033;-80
2022/03/04 07:28:50;;;;;;;32.05;13.75;;;0.00;65.90;;;;;;5038292;28;20029;-80
2022/03/04 07:31:16;;;;;;;30.55;13.30;;;0.10;65.30;;;;;;5038690;28;20021;-80
2022/03/04 07:33:42;;;;;;;24.45;13.45;;;0.10;64.60;;;;;;5039062;28;20025;-79
2022/03/04 07:36:08;;;;;;;27.20;12.32;;;0.20;64.60;;;;;;5053898;28;20390;-83
2022/03/04 07:38:34;;;;;;;32.65;13.27;;;0.30;64.60;;;;;;5054684;28;20474;-82
2022/03/04 07:41:02;;;;;;;32.20;13.80;;;0.40;63.80;;;;;;5039867;28;20026;-82
2022/03/04 07:43:28;;;;;;;30.15;13.00;;;0.50;63.50;;;;;;5049510;28;20017;-82
2022/03/04 07:45:54;;;;;;;26.08;12.55;;;0.60;63.30;;;;;;5039226;28;20026;-83
2022/03/04 07:48:19;;;;;;;25.60;13.35;;;0.70;63.10;;;;;;5037087;28;20032;-82
2022/03/04 07:50:45;;;;;;;28.48;13.52;;;0.90;62.60;;;;;;5038850;28;20110;-81
2022/03/04 07:53:11;;;;;;;26.50;12.60;;;1.00;61.80;;;;;;5024916;28;20522;-82
2022/03/04 07:55:36;;;;;;;25.30;12.50;;;1.20;61.50;;;;;;5016420;28;20037;-82
2022/03/04 07:58:02;;;;;;;29.63;13.63;;;1.40;61.30;;;;;;5017056;28;20044;-81
2022/03/04 08:00:28;;;;;;;29.75;14.50;;;1.50;59.80;;;;;;5016925;28;20026;-82
2022/03/04 08:02:54;;;;;;;26.52;13.60;;;1.60;58.60;;;;;;5020449;28;20030;-81
2022/03/04 08:05:21;;;;;;;29.67;13.85;;;1.70;58.40;;;;;;5018676;28;20026;-81
2022/03/04 08:07:47;;;;;;;27.48;12.77;;;1.80;58.30;;;;;;5036334;28;20043;-81
2022/03/04 08:10:15;;;;;;;30.10;12.85;;;1.90;57.60;;;;;;5022943;28;20042;-82
2022/03/04 08:12:41;;;;;;;26.05;13.13;;;2.00;57.80;;;;;;5015880;28;20026;-82
2022/03/04 08:15:10;;;;;;;26.75;12.35;;;2.20;58.00;;;;;;5027524;28;20029;-82
2022/03/04 08:17:36;;;;;;;26.70;13.38;;;2.40;57.60;;;;;;5029142;28;20045;-81
2022/03/04 08:20:03;;;;;;;30.75;12.45;;;2.50;56.90;;;;;;5031606;28;20510;-82
2022/03/04 08:22:28;;;;;;;31.75;14.57;;;2.70;56.40;;;;;;5019114;28;20026;-82
2022/03/04 08:24:55;;;;;;;30.88;13.43;;;2.80;55.20;;;;;;5032675;28;20501;-82
2022/03/04 08:27:21;;;;;;;26.83;13.75;;;2.80;55.00;;;;;;5018287;28;20021;-81
2022/03/04 08:29:47;;;;;;;31.05;14.55;;;2.90;55.50;;;;;;5019168;28;20018;-83
2022/03/04 08:32:13;;;;;;;27.00;13.82;;;2.90;55.00;;;;;;5034984;28;20053;-81
2022/03/04 08:34:39;;;;;;;28.67;13.40;;;3.00;54.60;;;;;;5018906;28;20033;-81
2022/03/04 08:37:04;;;;;;;31.20;14.50;;;3.00;54.90;;;;;;5019779;28;20065;-82
2022/03/04 08:39:30;;;;;;;28.60;13.10;;;3.20;54.90;;;;;;5028532;28;20038;-82
2022/03/04 08:41:56;;;;;;;29.13;14.20;;;3.20;55.30;;;;;;5026400;28;20014;-82
2022/03/04 08:44:21;;;;;;;30.33;14.45;;;3.60;55.00;;;;;;5038776;28;20045;-81
2022/03/04 08:46:47;;;;;;;30.23;14.45;;;3.70;53.70;;;;;;5038853;28;20057;-82
2022/03/04 08:49:13;;;;;;;28.83;13.60;;;3.80;53.80;;;;;;5025739;28;20037;-81
2022/03/04 08:51:39;;;;;;;29.00;14.48;;;4.00;53.30;;;;;;5019063;28;20366;-82
2022/03/04 08:54:08;;;;;;;28.45;13.55;;;4.00;52.60;;;;;;5018824;28;20026;-82
2022/03/04 08:56:34;;;;;;;24.20;12.32;;;4.20;53.10;;;;;;5033063;28;20451;-82
2022/03/04 08:59:01;;;;;;;25.15;13.07;;;4.40;52.40;;;;;;5016033;28;20048;-82
2022/03/04 09:01:27;;;;;;;25.40;12.93;;;4.60;52.60;;;;;;5017305;28;20022;-82
2022/03/04 09:03:53;;;;;;;28.75;14.45;;;4.80;51.60;;;;;;5015906;28;20026;-82
2022/03/04 09:06:18;;;;;;;28.35;14.40;;;5.00;50.70;;;;;;5015414;28;20021;-83
2022/03/04 09:08:44;;;;;;;28.15;13.25;;;5.10;50.20;;;;;;5017105;28;20059;-83
2022/03/04 09:11:10;;;;;;;23.63;12.88;;;5.30;50.00;;;;;;5015763;28;20022;-83
2022/03/04 09:13:36;;;;;;;32.25;15.07;;;5.50;49.80;;;;;;5019336;28;20350;-82
2022/03/04 09:16:02;;;;;;;24.15;13.40;;;5.60;49.20;;;;;;5019642;28;20022;-82
2022/03/04 09:18:28;;;;;;;25.67;13.63;;;5.70;49.20;;;;;;5016181;28;20037;-83
2022/03/04 09:20:54;;;;;;;26.08;13.88;;;5.90;48.00;;;;;;5016159;28;20030;-81
2022/03/04 09:23:21;;;;;;;25.73;13.60;;;6.00;47.90;;;;;;5015068;28;20037;-80
2022/03/04 09:25:48;;;;;;;25.90;14.77;;;6.10;47.60;;;;;;5016544;28;20097;-81
2022/03/04 09:28:14;;;;;;;23.95;13.02;;;6.10;45.70;;;;;;5015505;28;20037;-81
2022/03/04 09:30:40;;;;;;;26.73;14.32;;;5.80;46.30;;;;;;5015686;28;20029;-81
2022/03/04 09:33:06;;;;;;;27.35;14.35;;;5.90;46.10;;;;;;5044278;28;20022;-82
2022/03/04 09:35:32;;;;;;;26.33;13.15;;;5.80;46.10;;;;;;5026080;28;20042;-84
2022/03/04 09:37:58;;;;;;;27.90;14.40;;;5.80;46.80;;;;;;5016518;28;20557;-81
2022/03/04 09:40:23;;;;;;;29.48;14.55;;;5.90;47.40;;;;;;5018325;28;20714;-82
2022/03/04 09:42:49;;;;;;;28.80;14.93;;;6.10;47.00;;;;;;5015578;28;20026;-82
2022/03/04 09:45:15;;;;;;;28.23;14.35;;;6.50;46.30;;;;;;5024863;28;20108;-81
2022/03/04 09:47:43;;;;;;;28.55;15.05;;;6.50;45.90;;;;;;5038207;28;20040;-81
2022/03/04 09:50:09;;;;;;;28.08;14.73;;;6.60;45.80;;;;;;5053069;28;20113;-82
2022/03/04 09:52:35;;;;;;;38.47;18.20;;;6.80;45.50;;;;;;5022939;28;20018;-83
2022/03/04 09:55:02;;;;;;;32.90;15.80;;;6.90;44.30;;;;;;5017058;28;20033;-82
2022/03/04 09:57:29;;;;;;;28.25;14.43;;;6.60;48.20;;;;;;5017424;28;20022;-81
2022/03/04 09:59:55;;;;;;;28.02;14.35;;;6.60;51.00;;;;;;5034051;28;20164;-81
2022/03/04 10:02:23;;;;;;;27.45;15.07;;;6.90;55.10;;;;;;5024767;28;20026;-81
2022/03/04 10:05:09;;;;;;;28.08;14.60;;;7.10;45.50;;;;;;5024954;28;20112;-81
2022/03/04 10:07:44;;;;;;;27.73;15.05;;;7.40;44.60;;;;;;5016100;28;20125;-81
2022/03/04 10:10:11;;;;;;;29.30;15.13;;;7.30;43.90;;;;;;5022229;28;20070;-82
2022/03/04 10:12:53;;;;;;;27.13;15.50;;;7.20;44.40;;;;;;5035533;28;20030;-84
2022/03/04 10:15:19;;;;;;;25.60;14.43;;;7.10;44.40;;;;;;5003897;28;20098;-82
2022/03/04 10:17:58;;;;;;;27.70;14.40;;;7.10;44.90;;;;;;5032353;28;20030;-83
2022/03/04 10:20:32;;;;;;;28.98;15.55;;;7.50;45.10;;;;;;5038046;28;20082;-83
2022/03/04 10:23:19;;;;;;;29.13;15.18;;;7.60;43.70;;;;;;5037128;28;20048;-83
2022/03/04 10:25:48;;;;;;;25.88;14.10;;;7.70;43.30;;;;;;5025129;28;20502;-81
2022/03/04 10:28:15;;;;;;;25.42;13.98;;;7.90;42.80;;;;;;5020831;28;20474;-81
2022/03/04 10:30:48;;;;;;;26.35;13.73;;;8.00;42.50;;;;;;5022670;28;20359;-81
2022/03/04 10:33:19;;;;;;;22.92;13.38;;;7.90;41.90;;;;;;5023162;28;20036;-80
2022/03/04 10:35:46;;;;;;;24.25;14.40;;;7.70;41.60;;;;;;5026433;28;20068;-81
2022/03/04 10:38:23;;;;;;;29.23;13.93;;;7.80;42.20;;;;;;5021743;28;20116;-80
2022/03/04 10:40:50;;;;;;;28.35;14.32;;;8.10;42.00;;;;;;5024987;28;20026;-80
2022/03/04 10:43:23;;;;;;;21.83;12.90;;;8.20;41.60;;;;;;5033208;28;20036;-81
2022/03/04 10:46:02;;;;;;;25.38;14.32;;;8.40;41.30;;;;;;5033995;28;20021;-81
2022/03/04 10:48:29;;;;;;;24.27;13.85;;;8.40;41.00;;;;;;5025590;28;20065;-81
2022/03/04 10:50:57;;;;;;;29.90;15.02;;;8.50;40.60;;;;;;5025679;28;20026;-81
2022/03/04 10:53:30;;;;;;;24.70;13.35;;;8.40;40.60;;;;;;5019393;28;20117;-82
2022/03/04 10:55:58;;;;;;;24.60;14.45;;;8.40;40.70;;;;;;5020486;28;20081;-82
2022/03/04 10:58:27;;;;;;;23.63;13.38;;;8.30;40.10;;;;;;5017916;28;20036;-83
2022/03/04 11:01:00;;;;;;;25.63;13.95;;;8.30;40.30;;;;;;5018207;28;20064;-83
2022/03/04 11:03:30;;;;;;;30.30;15.27;;;8.20;40.10;;;;;;5016974;28;20026;-83
2022/03/04 11:06:01;;;;;;;25.65;14.35;;;8.00;40.80;;;;;;5018472;28;20053;-83
2022/03/04 11:08:27;;;;;;;24.15;13.40;;;7.90;41.50;;;;;;5034133;28;20045;-83
2022/03/04 11:10:55;;;;;;;25.73;14.23;;;8.10;41.80;;;;;;5018652;28;20037;-83
2022/03/04 11:13:24;;;;;;;32.25;16.23;;;8.30;41.10;;;;;;5018060;28;20026;-83
2022/03/04 11:15:53;;;;;;;23.90;14.07;;;8.30;40.90;;;;;;5015252;28;20075;-83
2022/03/04 11:18:20;;;;;;;26.65;13.95;;;8.20;41.40;;;;;;5017897;28;20378;-83
2022/03/04 11:20:49;;;;;;;27.65;14.93;;;8.20;41.80;;;;;;5021710;28;20022;-85
2022/03/04 11:23:25;;;;;;;21.45;13.48;;;8.20;41.90;;;;;;5022823;28;20029;-84
2022/03/04 11:26:18;;;;;;;25.80;15.30;;;8.40;41.70;;;;;;5023457;28;20387;-84
2022/03/04 11:29:30;;;;;;;20.55;12.40;;;8.20;40.70;;;;;;5031111;28;20045;-86
2022/03/04 11:31:58;;;;;;;28.98;15.02;;;8.40;41.00;;;;;;5046001;28;20073;-83
2022/03/04 11:34:34;;;;;;;24.80;14.20;;;8.40;41.20;;;;;;5047650;28;20033;-84
2022/03/04 11:37:04;;;;;;;31.13;15.63;;;8.30;40.80;;;;;;5022199;28;20018;-85
2022/03/04 11:39:30;;;;;;;24.35;15.70;;;7.90;41.30;;;;;;5033682;28;20014;-84
2022/03/04 11:41:55;;;;;;;25.77;15.00;;;7.70;41.70;;;;;;5035634;28;20045;-82
2022/03/04 11:44:23;;;;;;;25.58;14.57;;;7.50;42.20;;;;;;5060294;28;20095;-83
2022/03/04 11:47:01;;;;;;;24.98;14.43;;;7.60;41.80;;;;;;5064942;28;20026;-84
2022/03/04 11:49:44;;;;;;;25.95;14.75;;;7.40;42.40;;;;;;5048787;28;20021;-85
2022/03/04 11:52:10;;;;;;;27.52;15.50;;;7.60;42.90;;;;;;5026390;28;20026;-84
2022/03/04 11:54:53;;;;;;;27.67;15.45;;;7.60;42.60;;;;;;5026695;28;20033;-82
2022/03/04 11:57:27;;;;;;;28.85;15.60;;;7.50;42.70;;;;;;5020524;28;20529;-84
2022/03/04 12:00:00;;;;;;;28.83;15.30;;;7.40;42.90;;;;;;5054188;28;20530;-84
2022/03/04 12:02:42;;;;;;;25.20;14.15;;;7.40;43.70;;;;;;5026640;28;20025;-84
2022/03/04 12:05:33;;;;;;;27.23;14.55;;;7.60;43.60;;;;;;5022481;28;20050;-83
2022/03/04 12:07:59;;;;;;;19.85;13.05;;;7.60;43.20;;;;;;5042870;28;20461;-83
2022/03/04 12:10:27;;;;;;;24.92;14.38;;;7.90;43.50;;;;;;5060543;28;20053;-85
2022/03/04 12:13:05;;;;;;;25.40;14.23;;;8.10;42.60;;;;;;5045736;28;20018;-81
2022/03/04 12:15:38;;;;;;;24.23;13.77;;;8.10;42.20;;;;;;5053058;28;20042;-80
2022/03/04 12:18:26;;;;;;;26.00;13.65;;;8.20;42.20;;;;;;5053456;28;20038;-82
2022/03/04 12:21:24;;;;;;;23.30;13.55;;;8.20;42.00;;;;;;5036402;28;20021;-82
2022/03/04 12:23:52;;;;;;;24.10;13.18;;;8.00;41.00;;;;;;5052547;28;20104;-82
2022/03/04 12:26:22;;;;;;;22.85;12.60;;;8.00;41.40;;;;;;5025650;28;20090;-84
2022/03/04 12:28:51;;;;;;;19.35;11.93;;;8.00;41.70;;;;;;5019218;28;20026;-83
2022/03/04 12:31:24;;;;;;;21.95;12.65;;;8.10;41.80;;;;;;5024834;28;20344;-84
2022/03/04 12:33:56;;;;;;;26.00;13.75;;;8.40;41.30;;;;;;5034206;28;20081;-84